Terminal Aerodrome Forecast
Issued by NWS Chicago, IL

Home | Current Version | Previous Version | Text Only | Print | Product List | Glossary On
Versions: 1 2 3 4 5 6 7 8 9 10 11 12 13 14 15 16 17 18 19 20 21 22 23 24 25 26 27 28 29 30 31
000
FTUS43 KLOT 102300
TAFRFD
TAF
KRFD 102320Z 1100/1124 17006KT P6SM SCT050
     FM110200 16003KT P6SM FEW250
     FM111200 17008KT P6SM FEW040 BKN250
     FM111500 17012G17KT P6SM SCT040 BKN150=

USA.gov is the U.S. government's official web portal to all federal, state and local government web resources and services.